Triangle Lake, Oregon
Current Conditions -  °F | °C
As of 9:54 AM on Friday 28 Nov 2014 (Local Time) from KEUG Reporting Station
Overcast Overcast  
Wind Chill: 53°   Ceiling: 4000
Heat Index: 53°   Visibility: 10mi
Dew Point: 49°   Wind: 13mph
Humidity: 86%   Direction: 180°S
Pressure: 29.69"   Gusts: NA
Location:  44.1962°N, 123.553°W
Report Text: KEUG 281754Z 18011KT 10SM FEW030 BKN040 OVC048 12/09 A2969 RMK AO2 RAB39E53 SLP054 P0000 60013 T01170094 10122 20106 58013
Loading
Personal Weather Stations






























Interactive Weather Map New forecast layout! Learn more

10-Day Weather Forecast

Advertisements
Track Severe Weather on mobile